createdAt,value
2017-12-28T00:00:11.974Z,62.4
2017-12-28T00:15:04.459Z,62.7
2017-12-28T00:30:05.195Z,62.1
2017-12-28T00:45:06.207Z,62.6
2017-12-28T01:00:05.376Z,63
2017-12-28T01:15:05.808Z,62.2
2017-12-28T01:30:04.966Z,62.5
2017-12-28T01:45:05.673Z,62.4
2017-12-28T02:00:05.136Z,62.1
2017-12-28T02:15:05.255Z,63
2017-12-28T02:30:05.368Z,64.5
2017-12-28T02:45:04.568Z,65.9
2017-12-28T03:00:05.054Z,66.5
2017-12-28T03:15:08.397Z,67.1
2017-12-28T03:30:12.327Z,67.7
2017-12-28T03:45:04.378Z,66.9
2017-12-28T04:00:04.697Z,66.9
2017-12-28T04:15:07.856Z,67.7
2017-12-28T04:30:07.634Z,68.3
2017-12-28T04:45:04.665Z,69.1
2017-12-28T05:00:06.474Z,68.7
2017-12-28T05:15:07.648Z,69.2
2017-12-28T05:30:05.993Z,69.4
2017-12-28T05:45:04.912Z,69.5
2017-12-28T06:00:05.104Z,68.8
2017-12-28T06:15:04.635Z,68.7
2017-12-28T06:30:05.577Z,70.6
2017-12-28T06:45:06.318Z,70.9
2017-12-28T07:00:04.914Z,71.5
2017-12-28T07:15:04.750Z,70.7
2017-12-28T07:30:05.139Z,70.4
2017-12-28T07:45:07.988Z,71.8
2017-12-28T08:00:04.433Z,72.3
2017-12-28T08:15:04.506Z,72.6
2017-12-28T08:30:06.376Z,72.6
2017-12-28T08:45:04.826Z,73.2
2017-12-28T09:00:05.283Z,73.1
2017-12-28T09:15:08.724Z,72.7
2017-12-28T09:30:05.621Z,72.8
2017-12-28T09:45:15.695Z,71.7
2017-12-28T10:00:11.473Z,72.1
2017-12-28T10:15:04.824Z,70.1
2017-12-28T10:30:05.679Z,70.9
2017-12-28T10:45:05.119Z,69.9
2017-12-28T11:00:05.196Z,68.3
2017-12-28T11:15:05.209Z,65.8
2017-12-28T11:30:04.370Z,65.2
2017-12-28T11:45:07.530Z,64.9
2017-12-28T12:00:05.509Z,64.1
2017-12-28T12:15:04.998Z,63.4
2017-12-28T12:30:04.810Z,62.7
2017-12-28T12:45:04.859Z,63
2017-12-28T13:00:04.955Z,62.3
2017-12-28T13:15:05.016Z,62.3
2017-12-28T13:30:07.798Z,62.6
2017-12-28T13:45:04.664Z,62.2
2017-12-28T14:00:04.547Z,62.5
2017-12-28T14:15:07.954Z,63.3
2017-12-28T14:30:04.558Z,63.7
2017-12-28T14:45:04.691Z,63.1
2017-12-28T15:00:04.830Z,62
2017-12-28T15:15:05.498Z,61
2017-12-28T15:30:05.018Z,60.9
2017-12-28T15:45:05.123Z,59.7
2017-12-28T16:00:11.772Z,59.2
2017-12-28T16:15:04.370Z,59.1
2017-12-28T16:30:04.750Z,59.4
2017-12-28T16:45:04.871Z,59.3
2017-12-28T17:00:05.220Z,59.9
2017-12-28T17:15:05.604Z,60.7
2017-12-28T17:30:07.860Z,60.6
2017-12-28T17:45:04.332Z,60.5
2017-12-28T18:00:04.414Z,61.4
2017-12-28T18:15:04.806Z,61.6
2017-12-28T18:30:04.688Z,63.5
2017-12-28T18:45:05.055Z,63.6
2017-12-28T19:00:05.584Z,61.7
2017-12-28T19:15:11.332Z,59.7
2017-12-28T19:30:06.085Z,59.9
2017-12-28T19:45:04.524Z,60.7
2017-12-28T20:00:05.217Z,61.3
2017-12-28T20:15:04.938Z,62
2017-12-28T20:30:05.045Z,62.4
2017-12-28T20:45:05.164Z,61.9
2017-12-28T21:00:04.667Z,61.6
2017-12-28T21:30:08.004Z,62.7
2017-12-28T21:45:04.936Z,62.9
2017-12-28T22:15:04.760Z,63.1
2017-12-28T22:30:05.189Z,62.9
2017-12-28T22:45:05.326Z,63.7
2017-12-28T23:00:05.464Z,63.3
2017-12-28T23:15:04.903Z,63.6
2017-12-28T23:30:08.125Z,63.2
2017-12-28T23:45:05.055Z,63.4
